Time;durP1;ratioP1;P1;durP2;ratioP2;P2;SDS_P1;SDS_P2;PMS_P1;PMS_P2;Temp;Humidity;BMP_temperature;BMP_pressure;BME280_temperature;BME280_humidity;BME280_pressure;Samples;Min_cycle;Max_cycle;Signal;HPM_P1;HPM_P2
2023/05/22 00:02:08;;;;;;;8.70;8.02;;;24.50;60.50;25.30;100529.00;;;;5009688;28;20194;-56
2023/05/22 00:04:34;;;;;;;8.90;8.20;;;24.50;60.50;25.30;100534.00;;;;5009500;28;20175;-55
2023/05/22 00:07:00;;;;;;;8.80;8.10;;;24.50;60.50;25.30;100531.00;;;;5009192;28;20191;-55
2023/05/22 00:09:26;;;;;;;8.38;7.68;;;24.40;60.50;25.20;100539.00;;;;5011666;28;20172;-56
2023/05/22 00:11:51;;;;;;;8.95;8.25;;;24.40;60.40;25.20;100538.00;;;;5010354;28;20283;-56
2023/05/22 00:14:17;;;;;;;8.32;7.72;;;24.40;60.30;25.20;100535.00;;;;5009302;28;20178;-54
2023/05/22 00:16:43;;;;;;;8.55;7.95;;;24.40;60.30;25.20;100538.00;;;;5008812;28;20273;-54
2023/05/22 00:19:12;;;;;;;9.23;8.52;;;24.40;60.30;25.20;100539.00;;;;5009269;28;20171;-54
2023/05/22 00:21:41;;;;;;;8.95;8.25;;;24.40;60.30;25.20;100524.00;;;;5009185;28;20164;-54
2023/05/22 00:24:07;;;;;;;9.10;8.40;;;24.40;60.30;25.20;100529.00;;;;5009519;28;20260;-56
2023/05/22 00:26:33;;;;;;;8.80;8.20;;;24.40;60.30;25.10;100518.00;;;;5009025;28;20195;-55
2023/05/22 00:28:59;;;;;;;8.88;8.18;;;24.40;60.30;25.10;100512.00;;;;5009141;28;20179;-55
2023/05/22 00:31:24;;;;;;;8.40;7.80;;;24.40;60.30;25.10;100518.00;;;;5009196;28;20204;-56
2023/05/22 00:33:50;;;;;;;8.50;7.90;;;24.40;60.30;25.10;100512.00;;;;5009483;28;20641;-55
2023/05/22 00:36:20;;;;;;;8.30;7.70;;;24.40;60.20;25.10;100518.00;;;;5008731;28;20243;-55
2023/05/22 00:38:47;;;;;;;9.13;8.43;;;24.40;60.20;25.10;100509.00;;;;5008918;28;20665;-55
2023/05/22 00:41:12;;;;;;;8.00;7.50;;;24.40;60.20;25.10;100513.00;;;;5008988;28;20171;-55
2023/05/22 00:43:38;;;;;;;8.43;7.82;;;24.30;60.10;25.00;100512.00;;;;4991226;28;20179;-55
2023/05/22 00:46:06;;;;;;;8.60;8.00;;;24.30;60.00;25.00;100514.00;;;;5008635;28;20176;-56
2023/05/22 00:48:32;;;;;;;8.60;7.90;;;24.30;60.00;25.00;100517.00;;;;5008557;28;20691;-55
2023/05/22 00:50:57;;;;;;;8.50;7.80;;;24.30;60.00;25.00;100510.00;;;;5007378;28;20175;-55
2023/05/22 00:53:23;;;;;;;8.25;7.65;;;24.30;60.00;25.00;100502.00;;;;5009146;28;20168;-55
2023/05/22 00:55:50;;;;;;;8.55;7.85;;;24.30;60.00;25.00;100489.00;;;;5008805;28;20242;-55
2023/05/22 00:58:20;;;;;;;8.73;8.13;;;24.30;60.00;25.00;100502.00;;;;4974724;28;20259;-56
2023/05/22 01:00:46;;;;;;;8.20;7.60;;;24.30;60.00;25.00;100500.00;;;;5008657;28;20195;-55
2023/05/22 01:03:12;;;;;;;8.40;7.72;;;24.30;60.00;24.90;100499.00;;;;4991044;28;20195;-56
2023/05/22 01:05:38;;;;;;;8.10;7.50;;;24.20;59.80;24.90;100507.00;;;;5008605;28;20203;-56
2023/05/22 01:08:05;;;;;;;8.48;7.82;;;24.20;59.90;24.90;100503.00;;;;5008275;28;20188;-56
2023/05/22 01:10:31;;;;;;;8.10;7.50;;;24.20;59.90;24.90;100492.00;;;;5007966;28;20187;-56
2023/05/22 01:13:11;;;;;;;8.00;7.40;;;24.20;59.80;24.90;100495.00;;;;4990296;28;20171;-56
2023/05/22 01:15:49;;;;;;;8.45;7.80;;;24.20;59.90;24.90;100514.00;;;;5007038;28;20275;-56
2023/05/22 01:18:25;;;;;;;8.00;7.40;;;24.20;60.00;24.90;100529.00;;;;4990758;28;20222;-55
2023/05/22 01:21:05;;;;;;;8.05;7.45;;;24.10;59.80;24.80;100522.00;;;;4991935;28;20171;-56
2023/05/22 01:24:10;;;;;;;8.38;7.63;;;24.10;59.80;24.80;100521.00;;;;4992341;28;20254;-56
2023/05/22 01:27:24;;;;;;;7.97;7.38;;;24.10;60.00;24.80;100528.00;;;;5008620;28;20242;-55
2023/05/22 01:29:58;;;;;;;8.20;7.60;;;24.10;59.90;24.80;100525.00;;;;4980246;28;20278;-55
2023/05/22 01:32:24;;;;;;;8.40;7.80;;;24.10;60.00;24.80;100476.00;;;;5008437;28;20172;-55
2023/05/22 01:34:55;;;;;;;7.80;7.20;;;24.10;59.90;24.80;100544.00;;;;5007040;28;20171;-56
2023/05/22 01:37:21;;;;;;;8.20;7.65;;;24.10;59.90;24.70;100529.00;;;;4990550;28;20219;-55
2023/05/22 01:39:47;;;;;;;8.18;7.57;;;24.10;60.00;24.70;100523.00;;;;4990577;28;20175;-55
2023/05/22 01:42:13;;;;;;;7.95;7.45;;;24.10;60.00;24.70;100517.00;;;;4974499;28;20171;-55
2023/05/22 01:44:40;;;;;;;8.40;7.80;;;24.00;59.90;24.70;100522.00;;;;5008113;28;20598;-56
2023/05/22 01:47:07;;;;;;;7.80;7.20;;;24.00;59.90;24.70;100512.00;;;;5006299;28;20191;-56
2023/05/22 01:49:33;;;;;;;7.83;7.33;;;24.00;60.00;24.70;100513.00;;;;5008198;28;20198;-56
2023/05/22 01:52:18;;;;;;;8.02;7.43;;;24.00;60.00;24.70;100514.00;;;;5006979;28;20219;-55
2023/05/22 01:55:12;;;;;;;8.30;7.60;;;24.00;60.00;24.70;100514.00;;;;4991097;28;20866;-56
2023/05/22 01:58:16;;;;;;;7.67;7.07;;;24.00;60.00;24.60;100518.00;;;;5007639;28;20269;-56
2023/05/22 02:00:42;;;;;;;7.72;7.13;;;24.00;60.00;24.60;100519.00;;;;5009171;28;20570;-55
2023/05/22 02:03:15;;;;;;;8.10;7.50;;;24.00;60.00;24.60;100511.00;;;;4990862;28;20176;-56
2023/05/22 02:05:40;;;;;;;8.00;7.38;;;24.00;60.00;24.60;100509.00;;;;4991629;28;20455;-55
2023/05/22 02:08:06;;;;;;;8.00;7.40;;;24.00;60.00;24.60;100502.00;;;;4974223;28;20327;-55
2023/05/22 02:10:32;;;;;;;8.07;7.30;;;24.00;60.00;24.50;100504.00;;;;5006839;28;20241;-56
2023/05/22 02:12:58;;;;;;;10.33;7.13;;;24.00;60.00;24.50;100507.00;;;;4991791;28;20175;-55
2023/05/22 02:15:24;;;;;;;8.50;7.20;;;23.90;59.90;24.50;100503.00;;;;5009531;28;20168;-55
2023/05/22 02:17:51;;;;;;;7.97;7.20;;;23.90;59.90;24.50;100502.00;;;;5007576;28;20208;-55
2023/05/22 02:20:17;;;;;;;8.60;7.90;;;23.90;59.90;24.50;100506.00;;;;5008073;28;20566;-55
2023/05/22 02:22:45;;;;;;;8.10;7.40;;;23.90;60.00;24.50;100506.00;;;;5009433;28;20171;-56
2023/05/22 02:25:15;;;;;;;7.73;7.03;;;23.90;59.90;24.50;100506.00;;;;5010352;28;20167;-56
2023/05/22 02:27:45;;;;;;;7.57;6.87;;;23.90;60.00;24.50;100498.00;;;;5011252;28;20203;-56
2023/05/22 02:30:12;;;;;;;8.17;7.47;;;23.90;59.90;24.40;100499.00;;;;5011927;28;20307;-56
2023/05/22 02:32:39;;;;;;;7.87;7.03;;;23.80;59.80;24.40;100495.00;;;;5011446;28;20183;-55
2023/05/22 02:35:05;;;;;;;7.87;7.20;;;23.90;60.00;24.40;100494.00;;;;5011462;28;20241;-55
2023/05/22 02:37:31;;;;;;;8.23;7.43;;;23.80;59.80;24.40;100503.00;;;;5010932;28;20207;-55
2023/05/22 02:39:57;;;;;;;8.13;7.33;;;23.80;59.80;24.40;100501.00;;;;5011303;28;20210;-54
2023/05/22 02:42:22;;;;;;;7.83;7.13;;;23.80;59.90;24.40;100497.00;;;;5011036;28;20176;-55
2023/05/22 02:44:48;;;;;;;7.75;7.05;;;23.80;59.80;24.40;100497.00;;;;5010860;28;20226;-55
2023/05/22 02:47:14;;;;;;;7.60;6.90;;;23.80;60.10;24.40;100487.00;;;;4992754;28;20191;-55
2023/05/22 02:49:40;;;;;;;7.67;6.90;;;23.80;60.10;24.40;100485.00;;;;5010708;28;20692;-56
2023/05/22 02:52:06;;;;;;;8.57;7.23;;;23.80;60.30;24.40;100476.00;;;;5010851;28;20241;-53
2023/05/22 02:54:31;;;;;;;7.90;7.30;;;23.80;60.90;24.20;100477.00;;;;5009624;28;20203;-54
2023/05/22 02:56:57;;;;;;;7.63;7.03;;;23.80;60.70;24.40;100484.00;;;;5009018;28;20211;-55
2023/05/22 02:59:23;;;;;;;8.60;7.30;;;23.80;60.50;24.30;100475.00;;;;5010762;28;20215;-54
2023/05/22 03:01:49;;;;;;;8.07;6.97;;;23.70;60.40;24.30;100476.00;;;;5010776;28;20255;-54
2023/05/22 03:04:15;;;;;;;8.20;7.50;;;23.70;60.40;24.30;100471.00;;;;5010757;28;20172;-54
2023/05/22 03:06:41;;;;;;;7.68;6.95;;;23.70;60.30;24.30;100467.00;;;;5010345;28;20692;-54
2023/05/22 03:09:07;;;;;;;7.67;7.07;;;23.70;60.20;24.30;100467.00;;;;5010771;28;20237;-54
2023/05/22 03:11:33;;;;;;;7.30;6.80;;;23.70;60.20;24.30;100474.00;;;;5010568;28;20186;-54
2023/05/22 03:13:59;;;;;;;7.50;6.90;;;23.60;60.10;24.30;100469.00;;;;5010802;28;20176;-53
2023/05/22 03:16:25;;;;;;;7.80;7.20;;;23.60;60.80;24.30;100475.00;;;;5010249;28;20638;-54
2023/05/22 03:19:13;;;;;;;6.90;6.30;;;23.60;60.10;24.20;100477.00;;;;5010685;28;20258;-53
2023/05/22 03:21:39;;;;;;;7.50;6.80;;;23.60;60.10;24.20;100472.00;;;;4995512;28;20696;-53
2023/05/22 03:24:05;;;;;;;7.70;7.00;;;23.60;60.10;24.20;100479.00;;;;5009161;28;20187;-53
2023/05/22 03:26:31;;;;;;;7.60;7.00;;;23.60;60.10;24.20;100469.00;;;;5010130;28;20230;-53
2023/05/22 03:28:57;;;;;;;7.70;7.10;;;23.60;60.10;24.20;100476.00;;;;5010282;28;20744;-54
2023/05/22 03:31:27;;;;;;;7.40;6.70;;;23.60;60.10;24.10;100484.00;;;;5010187;28;20167;-54
2023/05/22 03:33:53;;;;;;;7.37;6.87;;;23.50;60.00;24.10;100484.00;;;;5009335;28;20732;-53
2023/05/22 03:36:22;;;;;;;7.63;7.03;;;23.50;60.00;24.10;100486.00;;;;5009505;28;20175;-55
2023/05/22 03:38:48;;;;;;;7.43;6.83;;;23.50;60.00;24.10;100490.00;;;;5008951;28;20184;-54
2023/05/22 03:41:13;;;;;;;7.17;6.60;;;23.50;60.00;23.90;100481.00;;;;5010043;28;20669;-54
2023/05/22 03:43:39;;;;;;;7.80;7.20;;;23.50;60.00;24.10;100477.00;;;;5010040;28;20272;-54
2023/05/22 03:46:05;;;;;;;7.83;7.23;;;23.50;60.00;24.10;100482.00;;;;5010139;28;20172;-54
2023/05/22 03:48:32;;;;;;;7.70;7.10;;;23.40;59.90;24.00;100488.00;;;;5009743;28;20200;-53
2023/05/22 03:50:58;;;;;;;7.50;6.90;;;23.40;59.90;24.00;100486.00;;;;5010859;28;20201;-53
2023/05/22 03:53:24;;;;;;;7.23;6.63;;;23.40;60.00;24.00;100490.00;;;;5011002;28;20183;-53
2023/05/22 03:55:50;;;;;;;7.47;6.87;;;23.40;59.90;24.00;100495.00;;;;5010907;28;20259;-54
2023/05/22 03:58:15;;;;;;;7.90;7.27;;;23.40;60.00;24.00;100501.00;;;;5010690;28;20207;-53
2023/05/22 04:00:41;;;;;;;7.00;6.40;;;23.40;60.00;24.00;100494.00;;;;5011485;28;20176;-53
2023/05/22 04:03:11;;;;;;;7.50;6.80;;;23.40;60.00;24.00;100492.00;;;;5001891;28;20527;-53
2023/05/22 04:05:38;;;;;;;7.37;6.67;;;23.40;59.90;23.90;100494.00;;;;5010816;28;20180;-54
2023/05/22 04:08:04;;;;;;;7.67;7.07;;;23.30;59.90;23.90;100502.00;;;;5010491;28;20287;-54
2023/05/22 04:10:30;;;;;;;7.50;6.87;;;23.30;59.90;23.90;100494.00;;;;5010500;28;20234;-53
2023/05/22 04:12:56;;;;;;;7.43;6.83;;;23.30;60.00;23.90;100505.00;;;;5010292;28;20210;-53
2023/05/22 04:15:22;;;;;;;7.30;6.80;;;23.30;60.00;23.90;100492.00;;;;5025953;28;20198;-54
2023/05/22 04:17:48;;;;;;;7.50;6.90;;;23.30;60.00;23.90;100497.00;;;;5011701;28;20212;-54
2023/05/22 04:20:14;;;;;;;7.43;6.83;;;23.30;60.00;23.90;100491.00;;;;5010812;28;20271;-53
2023/05/22 04:22:40;;;;;;;7.07;6.43;;;23.30;60.00;23.90;100498.00;;;;5010074;28;20176;-52
2023/05/22 04:25:06;;;;;;;7.40;6.80;;;23.30;60.00;23.90;100503.00;;;;5009962;28;20198;-53
2023/05/22 04:27:33;;;;;;;7.23;6.60;;;23.30;60.10;23.90;100510.00;;;;5009424;28;20203;-53
2023/05/22 04:30:01;;;;;;;7.20;6.47;;;23.30;60.20;23.80;100511.00;;;;5010049;28;20180;-54
2023/05/22 04:32:28;;;;;;;8.70;7.30;;;23.30;60.20;23.80;100515.00;;;;5008902;28;20180;-54
2023/05/22 04:34:57;;;;;;;10.17;7.10;;;23.30;60.30;23.80;100513.00;;;;5009899;28;20315;-54
2023/05/22 04:37:27;;;;;;;7.67;6.93;;;23.30;60.20;23.80;100523.00;;;;5009417;28;20211;-55
2023/05/22 04:39:56;;;;;;;7.73;6.77;;;23.30;60.20;23.80;100525.00;;;;5010207;28;20187;-54
2023/05/22 04:42:24;;;;;;;8.17;6.90;;;23.20;60.10;23.80;100522.00;;;;5014955;28;20505;-54
2023/05/22 04:44:51;;;;;;;7.50;6.80;;;23.20;60.10;23.80;100520.00;;;;5029545;28;20186;-54
2023/05/22 04:47:18;;;;;;;7.60;7.00;;;23.20;60.10;23.80;100527.00;;;;5027294;28;20226;-54
2023/05/22 04:49:44;;;;;;;7.93;7.17;;;23.20;60.50;23.80;100518.00;;;;5029312;28;20194;-54
2023/05/22 04:52:10;;;;;;;7.27;6.57;;;23.20;60.40;23.80;100528.00;;;;5029123;28;20183;-54
2023/05/22 04:54:37;;;;;;;7.60;7.00;;;23.20;60.30;23.80;100519.00;;;;5029245;28;20679;-54
2023/05/22 04:57:03;;;;;;;9.70;7.40;;;23.20;61.10;23.80;100515.00;;;;5028674;28;20202;-54
2023/05/22 04:59:32;;;;;;;7.70;7.10;;;23.20;60.30;23.70;100513.00;;;;5029099;28;20171;-53
2023/05/22 05:01:58;;;;;;;9.10;7.03;;;23.20;60.40;23.70;100517.00;;;;5028862;28;20232;-53
2023/05/22 05:04:23;;;;;;;7.27;6.67;;;23.20;60.40;23.70;100513.00;;;;5029155;28;20645;-53
2023/05/22 05:06:52;;;;;;;7.30;6.70;;;23.20;60.50;23.70;100516.00;;;;5028226;28;20294;-54
2023/05/22 05:09:18;;;;;;;7.43;6.83;;;23.20;60.40;23.70;100512.00;;;;5029078;28;20186;-54
2023/05/22 05:11:43;;;;;;;7.80;7.17;;;23.20;60.40;23.70;100515.00;;;;5028795;28;20182;-55
2023/05/22 05:14:09;;;;;;;7.93;7.23;;;23.20;60.50;23.70;100518.00;;;;5029200;28;20222;-54
2023/05/22 05:16:35;;;;;;;7.43;6.83;;;23.20;60.40;23.70;100520.00;;;;5028206;28;20304;-54
2023/05/22 05:19:00;;;;;;;7.40;6.80;;;23.20;60.50;23.70;100519.00;;;;5005842;28;20180;-54
2023/05/22 05:21:26;;;;;;;7.80;7.07;;;23.20;60.50;23.70;100523.00;;;;5008806;28;20656;-54
2023/05/22 05:23:52;;;;;;;7.57;6.97;;;23.10;60.60;23.70;100526.00;;;;5017138;28;20258;-53
2023/05/22 05:26:20;;;;;;;7.27;6.67;;;23.10;60.50;23.70;100517.00;;;;5027899;28;20187;-53
2023/05/22 05:28:46;;;;;;;6.83;6.33;;;23.20;60.50;23.70;100526.00;;;;5003859;28;20627;-53
2023/05/22 05:31:12;;;;;;;7.33;6.73;;;23.20;60.50;23.70;100528.00;;;;5006958;28;20176;-54
2023/05/22 05:33:37;;;;;;;6.93;6.43;;;23.10;60.60;23.60;100532.00;;;;5008292;28;20254;-52
2023/05/22 05:36:03;;;;;;;7.93;7.23;;;23.10;60.70;23.60;100523.00;;;;5008125;28;20199;-54
2023/05/22 05:38:29;;;;;;;7.47;6.90;;;23.10;60.70;23.60;100534.00;;;;5007404;28;20242;-54
2023/05/22 05:40:55;;;;;;;7.50;6.80;;;23.10;60.70;23.60;100535.00;;;;5008570;28;20851;-54
2023/05/22 05:43:22;;;;;;;7.53;6.83;;;23.10;60.70;23.60;100535.00;;;;5007837;28;20171;-54
2023/05/22 05:45:47;;;;;;;7.40;6.80;;;23.10;60.70;23.60;100541.00;;;;5008553;28;20211;-54
2023/05/22 05:48:13;;;;;;;7.90;7.13;;;23.10;60.70;23.60;100540.00;;;;5006952;28;20196;-54
2023/05/22 05:50:39;;;;;;;7.70;7.03;;;23.10;60.70;23.60;100545.00;;;;5008187;28;20192;-54
2023/05/22 05:53:05;;;;;;;7.70;7.10;;;23.10;60.80;23.60;100550.00;;;;5008442;28;20665;-54
2023/05/22 05:55:31;;;;;;;8.20;7.50;;;23.10;60.80;23.60;100550.00;;;;5008462;28;20179;-54
2023/05/22 05:57:57;;;;;;;7.77;7.10;;;23.10;60.90;23.60;100553.00;;;;5010731;28;20218;-54
2023/05/22 06:00:23;;;;;;;7.00;6.47;;;23.10;60.80;23.60;100560.00;;;;5011899;28;20168;-54
2023/05/22 06:02:48;;;;;;;7.33;6.77;;;23.00;60.70;23.60;100559.00;;;;5012225;28;20596;-54
2023/05/22 06:05:16;;;;;;;7.93;7.33;;;23.10;60.90;23.50;100554.00;;;;5014669;28;20167;-54
2023/05/22 06:07:42;;;;;;;6.93;6.43;;;23.10;61.00;23.60;100559.00;;;;5013397;28;20287;-54
2023/05/22 06:10:09;;;;;;;7.30;6.80;;;23.10;61.00;23.60;100559.00;;;;5012499;28;20224;-54
2023/05/22 06:12:36;;;;;;;7.40;6.80;;;23.10;61.00;23.60;100568.00;;;;5020461;28;20182;-54
2023/05/22 06:15:04;;;;;;;7.80;7.20;;;23.00;60.90;23.60;100562.00;;;;5022485;28;20176;-55
2023/05/22 06:17:30;;;;;;;7.03;6.53;;;23.00;60.90;23.50;100562.00;;;;5002834;28;20291;-54
2023/05/22 06:19:56;;;;;;;7.40;6.80;;;23.00;60.80;23.50;100574.00;;;;5013190;28;20210;-54
2023/05/22 06:22:24;;;;;;;7.43;6.90;;;23.00;60.80;23.60;100573.00;;;;5012671;28;20785;-54
2023/05/22 06:24:53;;;;;;;7.17;6.63;;;23.00;60.80;23.60;100569.00;;;;5012118;28;20794;-54
2023/05/22 06:27:23;;;;;;;7.03;6.47;;;23.00;60.70;23.50;100569.00;;;;5011613;28;20188;-54
2023/05/22 06:29:49;;;;;;;7.40;6.90;;;23.00;60.90;23.50;100564.00;;;;5011560;28;20178;-54
2023/05/22 06:32:15;;;;;;;6.90;6.30;;;23.00;60.70;23.50;100567.00;;;;5011319;28;20819;-53
2023/05/22 06:34:43;;;;;;;7.40;6.80;;;23.00;60.80;23.50;100576.00;;;;5012493;28;20206;-55
2023/05/22 06:37:09;;;;;;;7.83;7.23;;;23.00;60.70;23.50;100565.00;;;;5011272;28;20246;-54
2023/05/22 06:39:35;;;;;;;7.37;6.70;;;23.00;60.70;23.50;100568.00;;;;5012280;28;20172;-53
2023/05/22 06:42:01;;;;;;;7.60;7.00;;;23.00;60.70;23.50;100573.00;;;;5011556;28;20638;-52
2023/05/22 06:44:26;;;;;;;6.93;6.43;;;23.00;60.70;23.50;100571.00;;;;5011742;28;20270;-53
2023/05/22 06:46:52;;;;;;;7.30;6.70;;;23.00;60.70;23.50;100572.00;;;;5010179;28;20188;-53
2023/05/22 06:49:18;;;;;;;7.27;6.77;;;23.00;60.80;23.50;100580.00;;;;5011723;28;20607;-54
2023/05/22 06:51:45;;;;;;;6.97;6.27;;;22.90;60.70;23.50;100579.00;;;;5011472;28;20176;-53
2023/05/22 06:54:12;;;;;;;7.23;6.63;;;22.90;60.70;23.50;100589.00;;;;5011662;28;20179;-53
2023/05/22 06:56:41;;;;;;;7.40;6.80;;;23.00;60.90;23.50;100582.00;;;;5010959;28;20200;-53
2023/05/22 06:59:09;;;;;;;7.43;6.87;;;23.00;60.90;23.50;100597.00;;;;5011853;28;20219;-53
2023/05/22 07:01:34;;;;;;;7.40;6.80;;;23.00;60.90;23.50;100594.00;;;;5011442;28;20167;-54
2023/05/22 07:04:01;;;;;;;7.13;6.63;;;22.90;60.90;23.50;100587.00;;;;5011751;28;20254;-54
2023/05/22 07:06:27;;;;;;;7.90;7.20;;;22.90;60.90;23.50;100595.00;;;;5011001;28;20164;-54
2023/05/22 07:08:52;;;;;;;7.47;6.87;;;22.90;60.90;23.40;100589.00;;;;5009275;28;20179;-54
2023/05/22 07:11:18;;;;;;;7.73;7.13;;;22.90;60.90;23.40;100596.00;;;;5011557;28;20176;-54
2023/05/22 07:13:44;;;;;;;8.30;7.50;;;22.90;61.10;23.40;100601.00;;;;5011362;28;20184;-54
2023/05/22 07:16:10;;;;;;;7.63;7.03;;;22.90;61.30;23.50;100593.00;;;;5010720;28;20175;-54
2023/05/22 07:18:35;;;;;;;7.60;7.00;;;22.90;61.10;23.50;100596.00;;;;5010856;28;20644;-54
2023/05/22 07:21:01;;;;;;;7.70;7.10;;;22.90;61.20;23.40;100587.00;;;;5010001;28;20199;-54
2023/05/22 07:23:27;;;;;;;7.27;6.77;;;22.90;61.10;23.40;100604.00;;;;5009237;28;20163;-54
2023/05/22 07:25:53;;;;;;;7.87;7.20;;;22.90;61.10;23.40;100605.00;;;;5009671;28;20172;-54
2023/05/22 07:28:19;;;;;;;7.80;7.07;;;22.90;61.20;23.40;100599.00;;;;5009918;28;20833;-54
2023/05/22 07:30:44;;;;;;;8.40;7.73;;;22.90;61.10;23.40;100605.00;;;;5010035;28;20182;-54
2023/05/22 07:33:11;;;;;;;8.03;7.43;;;22.90;61.20;23.40;100602.00;;;;5010042;28;20554;-54
2023/05/22 07:35:37;;;;;;;7.90;7.30;;;22.80;61.10;23.40;100604.00;;;;5011166;28;20172;-54
2023/05/22 07:38:02;;;;;;;9.47;8.53;;;22.90;61.20;23.40;100610.00;;;;5011589;28;20211;-54
2023/05/22 07:40:28;;;;;;;8.57;7.87;;;22.80;61.20;23.40;100607.00;;;;5013751;28;20167;-53
2023/05/22 07:42:54;;;;;;;8.23;7.63;;;22.90;61.20;23.40;100608.00;;;;5011015;28;20661;-54
2023/05/22 07:45:20;;;;;;;8.43;7.77;;;22.90;61.10;23.40;100616.00;;;;5011358;28;20168;-54
2023/05/22 07:47:46;;;;;;;8.43;7.83;;;22.80;61.10;23.30;100619.00;;;;5010864;28;20620;-54
2023/05/22 07:50:12;;;;;;;8.43;7.83;;;22.80;61.10;23.30;100624.00;;;;5011064;28;20190;-54
2023/05/22 07:52:37;;;;;;;8.63;7.80;;;22.80;61.10;23.30;100623.00;;;;5011069;28;20172;-52
2023/05/22 07:55:04;;;;;;;8.60;7.90;;;22.80;61.10;23.30;100623.00;;;;5011877;28;20654;-52
2023/05/22 07:57:29;;;;;;;9.30;8.50;;;22.80;61.10;23.30;100626.00;;;;5011794;28;20218;-54
2023/05/22 07:59:55;;;;;;;9.00;8.30;;;22.80;61.10;23.30;100621.00;;;;5012187;28;20176;-54
2023/05/22 08:02:21;;;;;;;8.93;8.23;;;22.80;61.10;23.30;100628.00;;;;5011878;28;20696;-54
2023/05/22 08:04:49;;;;;;;9.37;8.57;;;22.80;61.10;23.30;100635.00;;;;5011803;28;20546;-54
2023/05/22 08:07:14;;;;;;;8.77;8.10;;;22.80;61.10;23.30;100628.00;;;;5012176;28;20195;-54
2023/05/22 08:09:40;;;;;;;9.13;8.43;;;22.80;61.10;23.30;100629.00;;;;5012955;28;20669;-54
2023/05/22 08:12:06;;;;;;;9.33;8.63;;;22.80;61.10;23.30;100625.00;;;;5011949;28;20233;-54
2023/05/22 08:14:32;;;;;;;9.23;8.53;;;22.80;61.10;23.30;100627.00;;;;5011251;28;20176;-54
2023/05/22 08:16:59;;;;;;;10.00;9.10;;;22.80;61.10;23.30;100632.00;;;;5010465;28;20191;-54
2023/05/22 08:19:25;;;;;;;9.43;8.63;;;22.80;61.10;23.30;100634.00;;;;5010754;28;20223;-54
2023/05/22 08:21:56;;;;;;;8.87;8.17;;;22.80;61.10;23.30;100644.00;;;;5012739;28;20168;-54
2023/05/22 08:24:27;;;;;;;9.47;8.67;;;22.80;61.10;23.30;100642.00;;;;5011946;28;20178;-53
2023/05/22 08:26:57;;;;;;;9.00;8.30;;;22.80;61.10;23.30;100630.00;;;;5010031;28;20203;-53
2023/05/22 08:29:22;;;;;;;9.40;8.70;;;22.70;60.90;23.30;100638.00;;;;5009532;28;20238;-53
2023/05/22 08:31:48;;;;;;;9.80;9.00;;;22.80;61.10;23.30;100636.00;;;;5010143;28;20172;-53
2023/05/22 08:34:14;;;;;;;9.30;8.60;;;22.70;60.90;23.30;100642.00;;;;5009905;28;20259;-54
2023/05/22 08:36:39;;;;;;;9.60;8.80;;;22.70;60.90;23.30;100648.00;;;;5010197;28;20302;-53
2023/05/22 08:39:06;;;;;;;9.87;9.07;;;22.70;60.90;23.30;100655.00;;;;5006211;28;20175;-49
2023/05/22 08:41:32;;;;;;;9.37;8.57;;;22.70;60.90;23.30;100652.00;;;;5011236;28;20180;-52
2023/05/22 08:43:57;;;;;;;9.23;8.43;;;22.70;61.30;23.30;100647.00;;;;5011299;28;20178;-52
2023/05/22 08:46:27;;;;;;;9.50;8.70;;;22.70;61.20;23.30;100647.00;;;;5028197;28;20668;-52
2023/05/22 08:48:57;;;;;;;9.30;8.60;;;22.70;61.20;23.30;100645.00;;;;5010893;28;20187;-52
2023/05/22 08:51:28;;;;;;;9.50;8.70;;;22.70;61.30;23.30;100647.00;;;;5006510;28;20182;-51
2023/05/22 08:53:55;;;;;;;10.20;9.30;;;22.70;61.40;23.30;100641.00;;;;5001665;28;20163;-52
2023/05/22 08:56:21;;;;;;;9.73;9.03;;;22.70;61.30;23.30;100648.00;;;;5002354;28;20255;-52
2023/05/22 08:58:47;;;;;;;9.20;8.50;;;22.70;61.40;23.30;100650.00;;;;4997491;28;20175;-52
2023/05/22 09:01:13;;;;;;;9.53;8.63;;;22.70;61.40;23.30;100638.00;;;;4999415;28;20172;-52
2023/05/22 09:03:38;;;;;;;10.10;9.30;;;22.70;61.40;23.30;100646.00;;;;5001558;28;20179;-52
2023/05/22 09:06:09;;;;;;;9.93;8.93;;;22.70;61.40;23.40;100653.00;;;;4999428;28;20164;-51
2023/05/22 09:08:36;;;;;;;9.73;8.73;;;22.70;61.40;23.30;100649.00;;;;5001172;28;20603;-52
2023/05/22 09:11:02;;;;;;;9.93;9.13;;;22.80;61.50;23.40;100657.00;;;;4999194;28;20642;-51
2023/05/22 09:13:29;;;;;;;10.83;9.93;;;22.70;61.40;23.40;100651.00;;;;4994998;28;20194;-51
2023/05/22 09:16:09;;;;;;;11.03;10.03;;;22.70;61.40;23.30;100650.00;;;;4996631;28;20187;-53
2023/05/22 09:18:38;;;;;;;10.37;9.57;;;22.70;61.60;23.10;100664.00;;;;4981139;28;20207;-51
2023/05/22 09:21:08;;;;;;;11.03;10.03;;;22.70;61.60;23.30;100664.00;;;;5004913;28;20177;-52
2023/05/22 09:23:34;;;;;;;10.73;9.83;;;22.70;61.50;23.30;100661.00;;;;5008026;28;20178;-53
2023/05/22 09:26:01;;;;;;;11.40;10.40;;;22.70;61.50;23.30;100658.00;;;;5007871;28;20175;-53
2023/05/22 09:28:27;;;;;;;11.17;10.00;;;22.80;61.80;23.10;100662.00;;;;5009335;28;20265;-52
2023/05/22 09:30:54;;;;;;;11.07;10.10;;;22.80;61.90;23.30;100663.00;;;;5008534;28;20666;-53
2023/05/22 09:33:21;;;;;;;11.40;10.43;;;22.80;61.90;23.30;100657.00;;;;5020081;28;20270;-53
2023/05/22 09:35:47;;;;;;;11.80;10.80;;;22.80;61.90;23.30;100649.00;;;;5033096;28;20185;-53
2023/05/22 09:38:13;;;;;;;11.13;10.07;;;22.80;61.90;23.30;100660.00;;;;5015052;28;20206;-52
2023/05/22 09:40:39;;;;;;;11.20;10.23;;;22.80;61.90;23.30;100669.00;;;;5032877;28;20177;-52
2023/05/22 09:43:08;;;;;;;11.50;10.27;;;22.80;61.90;23.30;100659.00;;;;5003093;28;20197;-53
2023/05/22 09:45:35;;;;;;;11.27;10.27;;;22.80;61.90;23.40;100660.00;;;;5002798;28;20167;-53
2023/05/22 09:48:02;;;;;;;11.47;10.43;;;22.80;61.90;23.40;100664.00;;;;5010309;28;20241;-52
2023/05/22 09:50:27;;;;;;;11.40;10.50;;;22.80;61.90;23.40;100657.00;;;;5011372;28;20191;-53
2023/05/22 09:52:53;;;;;;;11.47;10.57;;;22.80;61.90;23.30;100667.00;;;;5003391;28;20190;-52
2023/05/22 09:55:21;;;;;;;11.57;10.50;;;22.80;61.80;23.30;100662.00;;;;5002380;28;20180;-52
2023/05/22 09:57:48;;;;;;;11.67;10.63;;;22.80;61.80;23.30;100659.00;;;;5011912;28;20231;-53
2023/05/22 10:00:18;;;;;;;12.03;11.03;;;22.80;61.70;23.30;100662.00;;;;5012702;28;20172;-53
2023/05/22 10:02:49;;;;;;;11.17;10.17;;;22.80;61.60;23.30;100659.00;;;;5013714;28;20226;-52
2023/05/22 10:05:20;;;;;;;12.43;11.33;;;22.80;61.60;23.30;100655.00;;;;5013257;28;20207;-51
2023/05/22 10:07:50;;;;;;;11.77;10.67;;;22.80;61.50;23.30;100669.00;;;;5013569;28;20627;-56
2023/05/22 10:10:22;;;;;;;15.77;10.77;;;22.80;61.50;23.30;100657.00;;;;5013427;28;20230;-53
2023/05/22 10:12:52;;;;;;;14.93;10.77;;;22.80;61.70;23.30;100658.00;;;;5013238;28;20180;-53
2023/05/22 10:15:18;;;;;;;25.40;11.53;;;22.80;61.70;23.40;100655.00;;;;5013345;28;20254;-53
2023/05/22 10:17:44;;;;;;;17.30;10.70;;;22.80;61.90;23.40;100640.00;;;;5013336;28;20295;-54
2023/05/22 10:20:10;;;;;;;15.37;10.83;;;22.80;62.10;23.40;100658.00;;;;4996053;28;20178;-53
2023/05/22 10:22:36;;;;;;;15.93;10.73;;;22.80;62.30;23.40;100660.00;;;;4996221;28;20180;-52
2023/05/22 10:25:03;;;;;;;13.87;10.20;;;22.80;62.10;23.40;100661.00;;;;5015022;28;20168;-53
2023/05/22 10:27:28;;;;;;;14.63;10.93;;;22.80;62.00;23.40;100665.00;;;;5012744;28;20270;-53
2023/05/22 10:30:12;;;;;;;14.10;10.00;;;22.80;61.90;23.40;100665.00;;;;5012633;28;20658;-53
2023/05/22 10:32:55;;;;;;;16.17;10.27;;;22.80;62.10;23.40;100665.00;;;;5017071;28;20177;-54
2023/05/22 10:35:46;;;;;;;11.40;10.27;;;22.90;62.30;23.40;100662.00;;;;5005817;28;20234;-53
2023/05/22 10:38:36;;;;;;;14.20;10.83;;;22.80;62.10;23.40;100660.00;;;;5008406;28;20206;-53
2023/05/22 10:41:05;;;;;;;11.10;10.00;;;22.80;62.00;23.40;100646.00;;;;5013664;28;20547;-52
2023/05/22 10:43:31;;;;;;;11.70;10.17;;;22.90;62.00;23.40;100658.00;;;;4995484;28;20551;-52
2023/05/22 10:46:05;;;;;;;13.30;10.47;;;22.80;61.90;23.40;100647.00;;;;5009711;28;20184;-52
2023/05/22 10:48:44;;;;;;;12.17;9.70;;;22.90;62.00;23.40;100656.00;;;;5014605;28;20229;-52